Kaprifol — 5BXX2 — position and weather

sailwx.info

Track history (hours):
 
Tides and Currents Weather Stations Pressure Air Temp Water Temp Dewpoint Dewpoint Depression Visibility Wind Speed Wind Dir Waves Ship Positions

Kaprifol

Last reported at 2016-Sep-24 19:31 UTC. Time now 2016-Sep-24 20:59 UTC.
Position N 63°11' E 007°04'.

Length 90 m; draft 5.5 m.

Type: Tanker. MMSI: 210445000.

Date/timePositionNaut miles runAvg speedWind from/ knotsBaromVisibWave heightAir tempDewpointWater temp
2016-Sep-24 19:31N 63°11' E 007°04'9 9.2
2016-Sep-24 18:33N 63°13' E 007°23'9 9.2
2016-Sep-24 17:33N 63°14' E 007°43'9 8.8
2016-Sep-24 16:33N 63°15' E 008°03'39 9.4
2016-Sep-24 12:23N 63°34' E 009°20'17 9.2
2016-Sep-24 10:33N 63°49' E 009°35'9 0.3
2016-Sep-23 09:23N 63°54' E 009°51'18 5.8
2016-Sep-23 06:18N 63°49' E 009°13'15 0.4
2016-Sep-21 16:33N 63°46' E 009°45'13 1.8
2016-Sep-21 09:33N 63°36' E 009°26'1110.8
2016-Sep-21 08:33N 63°30' E 009°06'3110.3
2016-Sep-21 05:33N 63°16' E 008°05'18 9.2
2016-Sep-21 03:33N 63°15' E 007°25'9 9.0
2016-Sep-21 02:33N 63°11' E 007°07'263 9.7
2016-Sep-19 23:33N 58°54' E 005°15'11 2.7
2016-Sep-19 19:32N 58°55' E 005°36'0 0.0
2016-Sep-19 18:32N 58°55' E 005°36'0 0.0
2016-Sep-19 16:29N 58°55' E 005°36'0 0.1
2016-Sep-19 14:33N 58°56' E 005°36'3 2.5
2016-Sep-19 13:33N 58°58' E 005°33'7 6.8
2016-Sep-19 12:33N 59°04' E 005°32'5 4.8
2016-Sep-19 11:33N 59°07' E 005°24'7 3.7
2016-Sep-19 09:33N 59°07' E 005°09'20 0.4
2016-Sep-17 13:33N 58°49' E 005°23'0 0.0
2016-Sep-17 12:33N 58°49' E 005°23'0 0.0
2016-Sep-17 10:33N 58°49' E 005°23'0 0.0
2016-Sep-17 09:33N 58°49' E 005°23'0 0.0
2016-Sep-17 08:33N 58°49' E 005°23'0 0.0
2016-Sep-17 07:33N 58°49' E 005°23'0 0.0
2016-Sep-17 05:32N 58°49' E 005°23'0 0.0
2016-Sep-17 04:32N 58°49' E 005°23'0 0.0
2016-Sep-17 00:32N 58°49' E 005°23'257 9.4
2016-Sep-15 21:08N 57°09' W 002°03'1 0.9
2016-Sep-15 20:31N 57°09' W 002°05'0 0.0
2016-Sep-15 18:27N 57°09' W 002°05'0 0.0
2016-Sep-15 12:33N 57°08' W 002°05'0 0.0
2016-Sep-15 11:12N 57°08' W 002°05'  
Track history (hours):
 
Tides and Currents Weather Stations Pressure Air Temp Water Temp Dewpoint Dewpoint Depression Visibility Wind Speed Wind Dir Waves Ship Positions

Kaprifol

Last reported at 2016-Sep-24 19:31 UTC. Time now 2016-Sep-24 20:59 UTC.
Position N 63°11' E 007°04'.

Length 90 m; draft 5.5 m.

Type: Tanker. MMSI: 210445000.

Date/timePositionNaut miles runAvg speedWind from/ knotsBaromVisibWave heightAir tempDewpointWater temp
2016-Sep-24 19:31N 63°11' E 007°04'9 9.2
2016-Sep-24 18:33N 63°13' E 007°23'9 9.2
2016-Sep-24 17:33N 63°14' E 007°43'9 8.8
2016-Sep-24 16:33N 63°15' E 008°03'39 9.4
2016-Sep-24 12:23N 63°34' E 009°20'17 9.2
2016-Sep-24 10:33N 63°49' E 009°35'9 0.3
2016-Sep-23 09:23N 63°54' E 009°51'18 5.8
2016-Sep-23 06:18N 63°49' E 009°13'15 0.4
2016-Sep-21 16:33N 63°46' E 009°45'13 1.8
2016-Sep-21 09:33N 63°36' E 009°26'1110.8
2016-Sep-21 08:33N 63°30' E 009°06'3110.3
2016-Sep-21 05:33N 63°16' E 008°05'18 9.2
2016-Sep-21 03:33N 63°15' E 007°25'9 9.0
2016-Sep-21 02:33N 63°11' E 007°07'263 9.7
2016-Sep-19 23:33N 58°54' E 005°15'11 2.7
2016-Sep-19 19:32N 58°55' E 005°36'0 0.0
2016-Sep-19 18:32N 58°55' E 005°36'0 0.0
2016-Sep-19 16:29N 58°55' E 005°36'0 0.1
2016-Sep-19 14:33N 58°56' E 005°36'3 2.5
2016-Sep-19 13:33N 58°58' E 005°33'7 6.8
2016-Sep-19 12:33N 59°04' E 005°32'5 4.8
2016-Sep-19 11:33N 59°07' E 005°24'7 3.7
2016-Sep-19 09:33N 59°07' E 005°09'20 0.4
2016-Sep-17 13:33N 58°49' E 005°23'0 0.0
2016-Sep-17 12:33N 58°49' E 005°23'0 0.0
2016-Sep-17 10:33N 58°49' E 005°23'0 0.0
2016-Sep-17 09:33N 58°49' E 005°23'0 0.0
2016-Sep-17 08:33N 58°49' E 005°23'0 0.0
2016-Sep-17 07:33N 58°49' E 005°23'0 0.0
2016-Sep-17 05:32N 58°49' E 005°23'0 0.0
2016-Sep-17 04:32N 58°49' E 005°23'0 0.0
2016-Sep-17 00:32N 58°49' E 005°23'257 9.4
2016-Sep-15 21:08N 57°09' W 002°03'1 0.9
2016-Sep-15 20:31N 57°09' W 002°05'0 0.0
2016-Sep-15 18:27N 57°09' W 002°05'0 0.0
2016-Sep-15 12:33N 57°08' W 002°05'0 0.0
2016-Sep-15 11:12N 57°08' W 002°05'  

Dump ship's entire track history